History for KNYMEATP3

New York City, Meatpacking District, NY — Current Conditions
Daily Summary for February 24, 2018
  Current: High: Low: Average:
Temperature: 44.8°F 64.8°F 41.7°F 53.2°F
Dew Point: 44.8°F 64.8°F 41.2°F 47.8°F
Humidity: 100% 100% 65% 95%
Wind Speed: - 0.0mph - 0.0mph
Wind Gust: - 0.0mph - -
Wind: North - - North
Pressure: 30.05in 30.06in 29.96in -
Precipitation: 0.00in      
Statistics for the rest of the month
    High: Low: Average:
Temperature:   75.7°F 15.8°F 41.7°F
Dew Point:   64.8°F 1.8°F 34.2°F
Humidity:   100.0% 36.0% 78.3%
Wind Speed:   0.0mph from the North - 0.0mph
Wind Gust:   0.0mph from the North - -
Wind:   - - North
Pressure:   30.68in 29.40in -
Precipitation:   0.00in    
KNYMEATP3 Weather Graph
Tabular Data for February 24, 2018
Time Temp. Dew Point Pressure Wind Gust Humidity Rainfall
00:00 41.7°F 41.7°F 30.01in - 100% -
00:20 41.9°F 41.9°F 30.02in - 100% -
00:30 42.1°F 42.1°F 30.01in - 100% -
00:41 42.3°F 42.3°F 30.02in - 100% -
00:51 42.3°F 42.3°F 30.02in - 100% -
01:11 42.6°F 42.6°F 30.01in - 100% -
01:31 42.8°F 42.8°F 30.00in - 100% -
01:51 42.8°F 42.8°F 30.00in - 100% -
02:01 42.8°F 42.8°F 30.01in - 100% -
02:21 42.8°F 42.8°F 30.01in - 100% -
02:42 42.8°F 42.8°F 30.00in - 100% -
03:12 43.0°F 43.0°F 29.99in - 100% -
04:33 43.2°F 43.2°F 29.98in - 100% -
04:53 43.2°F 43.2°F 29.99in - 100% -
05:13 42.8°F 42.8°F 30.00in - 100% -
05:23 42.6°F 42.6°F 30.00in - 100% -
05:43 42.8°F 42.8°F 30.00in - 100% -
05:53 43.2°F 43.2°F 30.00in - 100% -
06:03 43.2°F 43.2°F 30.01in - 100% -
06:24 43.5°F 43.5°F 30.00in - 100% -
06:34 43.7°F 43.7°F 30.01in - 100% -
06:54 44.1°F 44.1°F 30.02in - 100% -
07:14 44.8°F 44.8°F 30.03in - 100% -
07:24 47.1°F 47.1°F 30.01in - 100% -
07:34 49.5°F 49.5°F 30.01in - 100% -
07:44 50.5°F 50.5°F 30.01in - 100% -
08:04 54.9°F 54.9°F 30.01in - 100% -
08:25 52.7°F 52.7°F 30.01in - 100% -
08:35 52.5°F 52.5°F 30.01in - 100% -
08:55 60.1°F 60.1°F 30.01in - 100% -
09:15 64.8°F 64.8°F 30.00in - 100% -
09:25 63.3°F 63.3°F 30.01in - 100% -
09:35 61.9°F 61.9°F 30.01in - 100% -
09:45 60.3°F 59.7°F 30.00in - 98% -
09:55 58.8°F 58.3°F 30.00in - 98% -
10:06 57.6°F 56.7°F 30.00in - 97% -
10:26 55.4°F 55.1°F 30.00in - 99% -
10:36 55.0°F 55.0°F 30.00in - 100% -
11:05 54.9°F 54.9°F 29.99in - 100% -
11:06 55.6°F 55.6°F 29.99in - 100% -
11:16 56.1°F 56.1°F 29.99in - 100% -
11:26 55.9°F 55.9°F 29.99in - 100% -
11:46 54.3°F 54.3°F 30.02in - 100% -
12:07 53.6°F 53.6°F 30.01in - 100% -
12:15 53.6°F 53.6°F 30.01in - 100% -
12:27 54.0°F 54.0°F 29.99in - 100% -
12:37 53.8°F 53.0°F 29.99in - 97% -
12:47 54.1°F 53.3°F 29.99in - 97% -
13:17 53.1°F 52.2°F 29.97in - 97% -
13:27 53.4°F 52.0°F 29.96in - 95% -
13:57 53.4°F 52.0°F 29.98in - 95% -
14:08 52.7°F 48.4°F 30.01in - 85% -
14:15 52.7°F 48.4°F 30.01in - 85% -
14:28 52.5°F 41.2°F 29.99in - 65% -
14:47 52.2°F 41.2°F 29.99in - 66% -
14:58 51.4°F 41.7°F 29.98in - 69% -
15:05 51.4°F 41.7°F 29.98in - 69% -
15:36 50.2°F 43.0°F 30.00in - 76% -
16:39 47.5°F 43.2°F 30.01in - 85% -
17:24 46.9°F 43.0°F 30.02in - 86% -
17:54 46.9°F 43.3°F 30.01in - 87% -
18:50 47.3°F 44.0°F 30.02in - 88% -
19:25 47.3°F 44.2°F 30.02in - 89% -
19:35 47.3°F 44.2°F 30.02in - 89% -
19:55 46.9°F 44.2°F 30.03in - 90% -
20:11 46.9°F 44.5°F 30.04in - 91% -
20:21 46.8°F 44.6°F 30.04in - 92% -
20:41 46.8°F 44.9°F 30.05in - 93% -
20:51 46.4°F 44.5°F 30.04in - 93% -
21:01 46.0°F 44.7°F 30.04in - 95% -
21:21 45.7°F 44.6°F 30.05in - 96% -
21:31 45.7°F 44.9°F 30.05in - 97% -
21:51 45.3°F 44.5°F 30.06in - 97% -
22:12 44.8°F 44.0°F 30.06in - 97% -
22:22 45.0°F 45.0°F 30.06in - 100% -
22:32 44.8°F 44.8°F 30.05in - 100% -
Comma Delimited File
Powered by Weather Underground, Inc.